sensor_id;sensor_type;location;lat;lon;timestamp;pressure;altitude;pressure_sealevel;temperature;humidity
43312;BME280;30041;48.300;16.352;2023-03-04T00:00:54;100092.78;;;22.08;40.33
43312;BME280;30041;48.300;16.352;2023-03-04T00:03:19;100097.34;;;22.07;40.56
43312;BME280;30041;48.300;16.352;2023-03-04T00:05:45;100093.47;;;22.03;40.39
43312;BME280;30041;48.300;16.352;2023-03-04T00:08:11;100092.88;;;22.01;40.58
43312;BME280;30041;48.300;16.352;2023-03-04T00:10:36;100088.06;;;22.03;40.38
43312;BME280;30041;48.300;16.352;2023-03-04T00:13:02;100087.25;;;22.03;40.51
43312;BME280;30041;48.300;16.352;2023-03-04T00:15:27;100089.13;;;22.02;40.39
43312;BME280;30041;48.300;16.352;2023-03-04T00:17:53;100089.13;;;22.02;40.33
43312;BME280;30041;48.300;16.352;2023-03-04T00:20:18;100079.16;;;22.03;40.49
43312;BME280;30041;48.300;16.352;2023-03-04T00:22:44;100075.88;;;22.01;40.28
43312;BME280;30041;48.300;16.352;2023-03-04T00:25:09;100075.03;;;22.00;40.47
43312;BME280;30041;48.300;16.352;2023-03-04T00:27:35;100087.72;;;22.00;40.48
43312;BME280;30041;48.300;16.352;2023-03-04T00:30:00;100073.38;;;21.99;40.48
43312;BME280;30041;48.300;16.352;2023-03-04T00:32:26;100079.63;;;22.00;40.40
43312;BME280;30041;48.300;16.352;2023-03-04T00:34:51;100079.84;;;21.98;40.54
43312;BME280;30041;48.300;16.352;2023-03-04T00:37:17;100077.97;;;21.98;40.27
43312;BME280;30041;48.300;16.352;2023-03-04T00:39:42;100076.56;;;21.96;40.42
43312;BME280;30041;48.300;16.352;2023-03-04T00:42:08;100069.28;;;21.96;40.57
43312;BME280;30041;48.300;16.352;2023-03-04T00:44:33;100070.13;;;21.97;40.49
43312;BME280;30041;48.300;16.352;2023-03-04T00:46:59;100068.47;;;21.96;40.43
43312;BME280;30041;48.300;16.352;2023-03-04T00:49:24;100075.53;;;21.97;40.52
43312;BME280;30041;48.300;16.352;2023-03-04T00:51:50;100064.94;;;21.95;40.41
43312;BME280;30041;48.300;16.352;2023-03-04T00:54:16;100057.88;;;21.94;40.53
43312;BME280;30041;48.300;16.352;2023-03-04T00:56:42;100057.88;;;21.94;40.42
43312;BME280;30041;48.300;16.352;2023-03-04T00:59:07;100052.75;;;21.93;40.58
43312;BME280;30041;48.300;16.352;2023-03-04T01:01:33;100044.66;;;21.93;40.31
43312;BME280;30041;48.300;16.352;2023-03-04T01:03:58;100044.66;;;21.93;40.30
43312;BME280;30041;48.300;16.352;2023-03-04T01:06:24;100037.38;;;21.93;40.49
43312;BME280;30041;48.300;16.352;2023-03-04T01:08:49;100038.19;;;21.94;40.43
43312;BME280;30041;48.300;16.352;2023-03-04T01:11:15;100038.66;;;21.91;40.41
43312;BME280;30041;48.300;16.352;2023-03-04T01:13:40;100034.28;;;21.90;40.44
43312;BME280;30041;48.300;16.352;2023-03-04T01:16:07;100028.69;;;21.91;40.31
43312;BME280;30041;48.300;16.352;2023-03-04T01:18:32;100035.34;;;21.89;40.54
43312;BME280;30041;48.300;16.352;2023-03-04T01:20:58;100033.69;;;21.88;40.54
43312;BME280;30041;48.300;16.352;2023-03-04T01:23:24;100034.28;;;21.90;40.42
43312;BME280;30041;48.300;16.352;2023-03-04T01:25:49;100032.66;;;21.89;40.44
43312;BME280;30041;48.300;16.352;2023-03-04T01:28:15;100027.25;;;21.89;40.63
43312;BME280;30041;48.300;16.352;2023-03-04T01:30:40;100024.56;;;21.89;40.57
43312;BME280;30041;48.300;16.352;2023-03-04T01:33:06;100019.38;;;21.87;40.50
43312;BME280;30041;48.300;16.352;2023-03-04T01:35:32;100018.56;;;21.87;40.54
43312;BME280;30041;48.300;16.352;2023-03-04T01:37:57;100019.66;;;21.86;40.53
43312;BME280;30041;48.300;16.352;2023-03-04T01:40:23;100018.78;;;21.85;40.80
43312;BME280;30041;48.300;16.352;2023-03-04T01:42:48;100022.09;;;21.87;40.39
43312;BME280;30041;48.300;16.352;2023-03-04T01:45:17;100018.78;;;21.85;40.41
43312;BME280;30041;48.300;16.352;2023-03-04T01:47:46;100018.78;;;21.85;40.41
43312;BME280;30041;48.300;16.352;2023-03-04T01:50:17;100009.88;;;21.85;40.29
43312;BME280;30041;48.300;16.352;2023-03-04T01:52:43;100012.00;;;21.83;40.25
43312;BME280;30041;48.300;16.352;2023-03-04T01:55:20;100005.56;;;21.84;40.38
43312;BME280;30041;48.300;16.352;2023-03-04T01:57:48;100006.16;;;21.86;40.32
43312;BME280;30041;48.300;16.352;2023-03-04T02:00:29;99994.16;;;21.82;40.58
43312;BME280;30041;48.300;16.352;2023-03-04T02:02:58;99996.88;;;21.82;40.56
43312;BME280;30041;48.300;16.352;2023-03-04T02:05:24;99996.03;;;21.81;40.41
43312;BME280;30041;48.300;16.352;2023-03-04T02:07:50;99995.00;;;21.82;40.54
43312;BME280;30041;48.300;16.352;2023-03-04T02:10:17;99987.72;;;21.83;40.48
43312;BME280;30041;48.300;16.352;2023-03-04T02:12:44;99993.91;;;21.83;40.40
43312;BME280;30041;48.300;16.352;2023-03-04T02:15:10;99983.38;;;21.82;40.44
43312;BME280;30041;48.300;16.352;2023-03-04T02:17:35;99974.69;;;21.80;40.43
43312;BME280;30041;48.300;16.352;2023-03-04T02:20:16;99975.50;;;21.80;40.47
43312;BME280;30041;48.300;16.352;2023-03-04T02:25:32;99970.59;;;21.77;40.63
43312;BME280;30041;48.300;16.352;2023-03-04T02:28:00;99965.53;;;21.81;40.49
43312;BME280;30041;48.300;16.352;2023-03-04T02:30:26;99963.91;;;21.80;40.39
43312;BME280;30041;48.300;16.352;2023-03-04T02:32:52;99962.50;;;21.77;40.56
43312;BME280;30041;48.300;16.352;2023-03-04T02:35:18;99960.59;;;21.77;40.56
43312;BME280;30041;48.300;16.352;2023-03-04T02:37:44;99960.84;;;21.76;40.51
43312;BME280;30041;48.300;16.352;2023-03-04T02:40:30;99953.56;;;21.76;40.33
43312;BME280;30041;48.300;16.352;2023-03-04T02:42:58;99958.94;;;21.76;40.65
43312;BME280;30041;48.300;16.352;2023-03-04T02:45:43;99949.44;;;21.74;40.40
43312;BME280;30041;48.300;16.352;2023-03-04T02:48:10;99948.16;;;21.76;40.52
43312;BME280;30041;48.300;16.352;2023-03-04T02:50:44;99945.47;;;21.76;40.23
43312;BME280;30041;48.300;16.352;2023-03-04T02:53:10;99942.16;;;21.74;40.33
43312;BME280;30041;48.300;16.352;2023-03-04T02:55:35;99941.13;;;21.75;40.34
43312;BME280;30041;48.300;16.352;2023-03-04T02:58:01;99934.06;;;21.74;40.31
43312;BME280;30041;48.300;16.352;2023-03-04T03:00:27;99931.38;;;21.74;40.53
43312;BME280;30041;48.300;16.352;2023-03-04T03:02:53;99930.56;;;21.74;40.45
43312;BME280;30041;48.300;16.352;2023-03-04T03:05:19;99935.38;;;21.72;40.55
43312;BME280;30041;48.300;16.352;2023-03-04T03:07:45;99917.78;;;21.69;40.50
43312;BME280;30041;48.300;16.352;2023-03-04T03:10:11;99912.97;;;21.71;40.46
43312;BME280;30041;48.300;16.352;2023-03-04T03:12:37;99917.56;;;21.71;40.47
43312;BME280;30041;48.300;16.352;2023-03-04T03:15:02;99911.56;;;21.69;40.54
43312;BME280;30041;48.300;16.352;2023-03-04T03:17:28;99912.38;;;21.69;40.49
43312;BME280;30041;48.300;16.352;2023-03-04T03:19:53;99908.66;;;21.70;40.54
43312;BME280;30041;48.300;16.352;2023-03-04T03:22:19;99903.09;;;21.65;40.51
43312;BME280;30041;48.300;16.352;2023-03-04T03:24:44;99898.31;;;21.67;40.63
43312;BME280;30041;48.300;16.352;2023-03-04T03:27:10;99891.03;;;21.68;40.45
43312;BME280;30041;48.300;16.352;2023-03-04T03:29:35;99892.09;;;21.67;40.38
43312;BME280;30041;48.300;16.352;2023-03-04T03:32:01;99890.47;;;21.66;40.32
43312;BME280;30041;48.300;16.352;2023-03-04T03:34:26;99884.47;;;21.64;40.53
43312;BME280;30041;48.300;16.352;2023-03-04T03:36:52;99879.91;;;21.64;40.59
43312;BME280;30041;48.300;16.352;2023-03-04T03:39:18;99873.44;;;21.65;40.54
43312;BME280;30041;48.300;16.352;2023-03-04T03:41:43;99879.91;;;21.64;40.46
43312;BME280;30041;48.300;16.352;2023-03-04T03:44:09;99876.97;;;21.66;40.39
43312;BME280;30041;48.300;16.352;2023-03-04T03:46:34;99867.00;;;21.66;40.48
43312;BME280;30041;48.300;16.352;2023-03-04T03:49:00;99870.72;;;21.65;40.46
43312;BME280;30041;48.300;16.352;2023-03-04T03:51:26;99866.19;;;21.66;40.56
43312;BME280;30041;48.300;16.352;2023-03-04T03:53:51;99861.59;;;21.66;40.60
43312;BME280;30041;48.300;16.352;2023-03-04T03:56:17;99858.91;;;21.66;40.44
43312;BME280;30041;48.300;16.352;2023-03-04T03:58:42;99860.41;;;21.62;40.43
43312;BME280;30041;48.300;16.352;2023-03-04T04:01:08;99858.31;;;21.64;40.38
43312;BME280;30041;48.300;16.352;2023-03-04T04:03:34;99851.25;;;21.63;40.51
43312;BME280;30041;48.300;16.352;2023-03-04T04:05:59;99854.22;;;21.62;40.39
43312;BME280;30041;48.300;16.352;2023-03-04T04:08:25;99845.28;;;21.61;40.58
43312;BME280;30041;48.300;16.352;2023-03-04T04:10:50;99856.06;;;21.61;40.37
43312;BME280;30041;48.300;16.352;2023-03-04T04:13:16;99847.41;;;21.59;40.50
43312;BME280;30041;48.300;16.352;2023-03-04T04:15:42;99839.31;;;21.59;40.35
43312;BME280;30041;48.300;16.352;2023-03-04T04:18:07;99844.25;;;21.62;40.37
43312;BME280;30041;48.300;16.352;2023-03-04T04:20:33;99836.16;;;21.62;40.40
43312;BME280;30041;48.300;16.352;2023-03-04T04:22:58;99834.50;;;21.61;40.40
43312;BME280;30041;48.300;16.352;2023-03-04T04:25:24;99832.38;;;21.63;40.49
43312;BME280;30041;48.300;16.352;2023-03-04T04:27:49;99830.75;;;21.62;40.39
43312;BME280;30041;48.300;16.352;2023-03-04T04:30:15;99833.44;;;21.62;40.41
43312;BME280;30041;48.300;16.352;2023-03-04T04:32:41;99819.16;;;21.62;40.45
43312;BME280;30041;48.300;16.352;2023-03-04T04:35:07;99820.78;;;21.63;40.48
43312;BME280;30041;48.300;16.352;2023-03-04T04:37:32;99815.88;;;21.60;40.32
43312;BME280;30041;48.300;16.352;2023-03-04T04:39:58;99818.56;;;21.60;40.54
43312;BME280;30041;48.300;16.352;2023-03-04T04:42:24;99820.44;;;21.59;40.61
43312;BME280;30041;48.300;16.352;2023-03-04T04:44:49;99821.00;;;21.61;40.31
43312;BME280;30041;48.300;16.352;2023-03-04T04:47:15;99815.63;;;21.61;40.35
43312;BME280;30041;48.300;16.352;2023-03-04T04:49:40;99813.16;;;21.60;40.35
43312;BME280;30041;48.300;16.352;2023-03-04T04:52:06;99809.06;;;21.57;40.56
43312;BME280;30041;48.300;16.352;2023-03-04T04:54:31;99811.75;;;21.57;40.50
43312;BME280;30041;48.300;16.352;2023-03-04T04:56:57;99808.47;;;21.55;40.52
43312;BME280;30041;48.300;16.352;2023-03-04T04:59:22;99809.28;;;21.55;40.42
43312;BME280;30041;48.300;16.352;2023-03-04T05:01:48;99802.81;;;21.56;40.49
43312;BME280;30041;48.300;16.352;2023-03-04T05:04:14;99800.97;;;21.57;40.33
43312;BME280;30041;48.300;16.352;2023-03-04T05:06:39;99811.19;;;21.55;40.62
43312;BME280;30041;48.300;16.352;2023-03-04T05:09:05;99802.28;;;21.54;40.47
43312;BME280;30041;48.300;16.352;2023-03-04T05:11:31;99800.13;;;21.56;40.42
43312;BME280;30041;48.300;16.352;2023-03-04T05:13:56;99804.97;;;21.54;40.22
43312;BME280;30041;48.300;16.352;2023-03-04T05:16:22;99797.09;;;21.53;40.42
43312;BME280;30041;48.300;16.352;2023-03-04T05:18:47;99806.59;;;21.55;40.56
43312;BME280;30041;48.300;16.352;2023-03-04T05:21:13;99804.13;;;21.54;40.30
43312;BME280;30041;48.300;16.352;2023-03-04T05:23:41;99801.69;;;21.52;40.39
43312;BME280;30041;48.300;16.352;2023-03-04T05:26:09;99801.44;;;21.54;40.35
43312;BME280;30041;48.300;16.352;2023-03-04T05:28:35;99800.03;;;21.51;40.45
43312;BME280;30041;48.300;16.352;2023-03-04T05:31:01;99797.09;;;21.53;40.42
43312;BME280;30041;48.300;16.352;2023-03-04T05:33:27;99792.53;;;21.53;40.37
43312;BME280;30041;48.300;16.352;2023-03-04T05:35:52;99789.00;;;21.53;40.36
43312;BME280;30041;48.300;16.352;2023-03-04T05:38:18;99792.75;;;21.52;40.31
43312;BME280;30041;48.300;16.352;2023-03-04T05:40:44;99793.59;;;21.52;40.26
43312;BME280;30041;48.300;16.352;2023-03-04T05:43:11;99796.28;;;21.52;40.41
43312;BME280;30041;48.300;16.352;2023-03-04T05:45:37;99792.75;;;21.52;40.40
43312;BME280;30041;48.300;16.352;2023-03-04T05:48:03;99794.41;;;21.53;40.45
43312;BME280;30041;48.300;16.352;2023-03-04T05:50:29;99799.22;;;21.51;40.52
43312;BME280;30041;48.300;16.352;2023-03-04T05:52:55;99794.03;;;21.49;40.54
43312;BME280;30041;48.300;16.352;2023-03-04T05:55:21;99798.13;;;21.52;40.39
43312;BME280;30041;48.300;16.352;2023-03-04T05:57:47;99790.53;;;21.49;40.37
43312;BME280;30041;48.300;16.352;2023-03-04T06:00:14;99795.91;;;21.49;40.41
43312;BME280;30041;48.300;16.352;2023-03-04T06:02:41;99795.91;;;21.49;40.47
43312;BME280;30041;48.300;16.352;2023-03-04T06:05:08;99801.91;;;21.51;40.31
43312;BME280;30041;48.300;16.352;2023-03-04T06:07:35;99795.09;;;21.48;40.51
43312;BME280;30041;48.300;16.352;2023-03-04T06:10:00;99798.41;;;21.50;40.39
43312;BME280;30041;48.300;16.352;2023-03-04T06:12:26;99812.09;;;21.49;40.36
43312;BME280;30041;48.300;16.352;2023-03-04T06:14:51;99800.50;;;21.48;40.53
43312;BME280;30041;48.300;16.352;2023-03-04T06:17:17;99808.59;;;21.48;40.35
43312;BME280;30041;48.300;16.352;2023-03-04T06:19:43;99815.03;;;21.47;40.33
43312;BME280;30041;48.300;16.352;2023-03-04T06:22:08;99816.69;;;21.48;40.37
43312;BME280;30041;48.300;16.352;2023-03-04T06:24:34;99807.78;;;21.48;40.42
43312;BME280;30041;48.300;16.352;2023-03-04T06:27:00;99815.63;;;21.49;40.37
43312;BME280;30041;48.300;16.352;2023-03-04T06:29:25;99812.91;;;21.49;40.51
43312;BME280;30041;48.300;16.352;2023-03-04T06:31:51;99818.31;;;21.49;40.24
43312;BME280;30041;48.300;16.352;2023-03-04T06:34:17;99809.63;;;21.47;40.54
43312;BME280;30041;48.300;16.352;2023-03-04T06:36:42;99813.97;;;21.48;40.55
43312;BME280;30041;48.300;16.352;2023-03-04T06:39:08;99821.81;;;21.50;40.55
43312;BME280;30041;48.300;16.352;2023-03-04T06:41:34;99824.06;;;21.53;40.31
43312;BME280;30041;48.300;16.352;2023-03-04T06:44:00;99818.09;;;21.51;40.40
43312;BME280;30041;48.300;16.352;2023-03-04T06:46:26;99814.56;;;21.50;40.24
43312;BME280;30041;48.300;16.352;2023-03-04T06:48:51;99816.69;;;21.48;40.34
43312;BME280;30041;48.300;16.352;2023-03-04T06:51:17;99813.97;;;21.48;40.24
43312;BME280;30041;48.300;16.352;2023-03-04T06:53:43;99810.00;;;21.51;40.38
43312;BME280;30041;48.300;16.352;2023-03-04T06:56:11;99812.09;;;21.49;40.61
43312;BME280;30041;48.300;16.352;2023-03-04T06:58:37;99809.19;;;21.50;40.42
43312;BME280;30041;48.300;16.352;2023-03-04T07:01:35;99810.09;;;21.44;40.50
43312;BME280;30041;48.300;16.352;2023-03-04T07:04:00;99799.44;;;21.49;40.30
43312;BME280;30041;48.300;16.352;2023-03-04T07:06:27;99799.44;;;21.49;40.39
43312;BME280;30041;48.300;16.352;2023-03-04T07:08:53;99798.41;;;21.50;40.31
43312;BME280;30041;48.300;16.352;2023-03-04T07:11:19;99801.09;;;21.50;40.43
43312;BME280;30041;48.300;16.352;2023-03-04T07:13:45;99795.69;;;21.50;40.45
43312;BME280;30041;48.300;16.352;2023-03-04T07:16:13;99790.06;;;21.52;40.38
43312;BME280;30041;48.300;16.352;2023-03-04T07:18:39;99790.53;;;21.49;40.37
43312;BME280;30041;48.300;16.352;2023-03-04T07:21:06;99791.59;;;21.48;40.55
43312;BME280;30041;48.300;16.352;2023-03-04T07:23:32;99784.53;;;21.47;40.34
43312;BME280;30041;48.300;16.352;2023-03-04T07:25:58;99786.75;;;21.50;40.42
43312;BME280;30041;48.300;16.352;2023-03-04T07:28:24;99781.63;;;21.48;40.35
43312;BME280;30041;48.300;16.352;2023-03-04T07:30:49;99780.56;;;21.49;40.37
43312;BME280;30041;48.300;16.352;2023-03-04T07:33:15;99785.13;;;21.49;40.41
43312;BME280;30041;48.300;16.352;2023-03-04T07:35:41;99787.25;;;21.47;40.26
43312;BME280;30041;48.300;16.352;2023-03-04T07:38:06;99787.25;;;21.47;40.44
43312;BME280;30041;48.300;16.352;2023-03-04T07:40:32;99789.47;;;21.50;40.22
43312;BME280;30041;48.300;16.352;2023-03-04T07:42:58;99791.34;;;21.49;40.23
43312;BME280;30041;48.300;16.352;2023-03-04T07:45:24;99783.25;;;21.49;40.13
43312;BME280;30041;48.300;16.352;2023-03-04T07:47:50;99785.06;;;21.25;40.98
43312;BME280;30041;48.300;16.352;2023-03-04T07:50:24;99794.56;;;21.16;40.29
43312;BME280;30041;48.300;16.352;2023-03-04T07:52:50;99793.84;;;21.09;41.13
43312;BME280;30041;48.300;16.352;2023-03-04T07:55:16;99801.09;;;20.97;41.66
43312;BME280;30041;48.300;16.352;2023-03-04T07:57:46;99802.78;;;20.79;42.26
43312;BME280;30041;48.300;16.352;2023-03-04T08:00:13;99802.88;;;20.72;42.75
43312;BME280;30041;48.300;16.352;2023-03-04T08:02:42;99804.13;;;21.00;41.61
43312;BME280;30041;48.300;16.352;2023-03-04T08:05:08;99801.94;;;21.21;41.02
43312;BME280;30041;48.300;16.352;2023-03-04T08:07:34;99795.53;;;21.33;40.55
43312;BME280;30041;48.300;16.352;2023-03-04T08:10:00;99797.66;;;21.43;40.29
43312;BME280;30041;48.300;16.352;2023-03-04T08:12:26;99802.38;;;21.48;40.35
43312;BME280;30041;48.300;16.352;2023-03-04T08:14:51;99803.78;;;21.50;40.20
43312;BME280;30041;48.300;16.352;2023-03-04T08:17:17;99805.19;;;21.53;40.33
43312;BME280;30041;48.300;16.352;2023-03-04T08:19:43;99804.59;;;21.51;40.16
43312;BME280;30041;48.300;16.352;2023-03-04T08:22:09;99802.50;;;21.53;40.26
43312;BME280;30041;48.300;16.352;2023-03-04T08:24:34;99809.06;;;21.57;40.25
43312;BME280;30041;48.300;16.352;2023-03-04T08:27:00;99816.09;;;21.58;40.26
43312;BME280;30041;48.300;16.352;2023-03-04T08:29:26;99802.38;;;21.60;40.03
43312;BME280;30041;48.300;16.352;2023-03-04T08:31:52;99808.09;;;21.63;40.06
43312;BME280;30041;48.300;16.352;2023-03-04T08:34:23;99810.81;;;21.63;40.13
43312;BME280;30041;48.300;16.352;2023-03-04T08:36:49;99806.25;;;21.64;40.05
43312;BME280;30041;48.300;16.352;2023-03-04T08:39:17;99807.66;;;21.66;40.28
43312;BME280;30041;48.300;16.352;2023-03-04T08:41:43;99810.09;;;21.68;40.02
43312;BME280;30041;48.300;16.352;2023-03-04T08:44:09;99813.88;;;21.67;40.09
43312;BME280;30041;48.300;16.352;2023-03-04T08:46:39;99810.69;;;21.70;39.89
43312;BME280;30041;48.300;16.352;2023-03-04T08:49:04;99809.66;;;21.71;39.92
43312;BME280;30041;48.300;16.352;2023-03-04T08:51:30;99812.56;;;21.69;39.98
43312;BME280;30041;48.300;16.352;2023-03-04T08:53:58;99811.28;;;21.72;39.92
43312;BME280;30041;48.300;16.352;2023-03-04T08:56:24;99799.69;;;21.71;39.97
43312;BME280;30041;48.300;16.352;2023-03-04T08:58:49;99801.88;;;21.74;40.00
43312;BME280;30041;48.300;16.352;2023-03-04T09:01:15;99808.59;;;21.72;39.91
43312;BME280;30041;48.300;16.352;2023-03-04T09:03:41;99811.63;;;21.75;39.96
43312;BME280;30041;48.300;16.352;2023-03-04T09:06:07;99796.50;;;21.74;39.95
43312;BME280;30041;48.300;16.352;2023-03-04T09:08:34;99809.53;;;21.77;39.96
43312;BME280;30041;48.300;16.352;2023-03-04T09:11:00;99809.31;;;21.79;39.80
43312;BME280;30041;48.300;16.352;2023-03-04T09:13:28;99795.56;;;21.81;39.86
43312;BME280;30041;48.300;16.352;2023-03-04T09:15:54;99799.56;;;21.78;39.88
43312;BME280;30041;48.300;16.352;2023-03-04T09:18:21;99797.94;;;21.77;39.98
43312;BME280;30041;48.300;16.352;2023-03-04T09:20:48;99801.22;;;21.79;39.82
43312;BME280;30041;48.300;16.352;2023-03-04T09:23:14;99799.06;;;21.81;39.86
43312;BME280;30041;48.300;16.352;2023-03-04T09:25:41;99800.16;;;21.80;39.81
43312;BME280;30041;48.300;16.352;2023-03-04T09:28:07;99798.63;;;21.84;39.77
43312;BME280;30041;48.300;16.352;2023-03-04T09:30:33;99802.84;;;21.80;39.76
43312;BME280;30041;48.300;16.352;2023-03-04T09:32:59;99804.00;;;21.84;39.83
43312;BME280;30041;48.300;16.352;2023-03-04T09:35:25;99807.75;;;21.83;39.60
43312;BME280;30041;48.300;16.352;2023-03-04T09:37:51;99797.56;;;21.85;39.91
43312;BME280;30041;48.300;16.352;2023-03-04T09:40:27;99796.16;;;21.83;39.83
43312;BME280;30041;48.300;16.352;2023-03-04T09:42:58;99796.97;;;21.83;40.02
43312;BME280;30041;48.300;16.352;2023-03-04T09:45:32;99797.56;;;21.85;39.83
43312;BME280;30041;48.300;16.352;2023-03-04T09:48:00;99791.13;;;21.86;39.85
43312;BME280;30041;48.300;16.352;2023-03-04T09:50:27;99789.22;;;21.87;39.71
43312;BME280;30041;48.300;16.352;2023-03-04T09:53:13;99790.31;;;21.86;39.90
43312;BME280;30041;48.300;16.352;2023-03-04T09:55:43;99795.69;;;21.86;39.80
43312;BME280;30041;48.300;16.352;2023-03-04T09:58:37;99788.16;;;21.88;39.70
43312;BME280;30041;48.300;16.352;2023-03-04T10:01:16;99787.34;;;21.87;39.96
43312;BME280;30041;48.300;16.352;2023-03-04T10:03:54;99782.75;;;21.88;39.75
43312;BME280;30041;48.300;16.352;2023-03-04T10:06:22;99774.09;;;21.74;39.84
43312;BME280;30041;48.300;16.352;2023-03-04T10:08:58;99775.88;;;21.45;40.46
43312;BME280;30041;48.300;16.352;2023-03-04T10:11:37;99773.34;;;21.08;41.44
43312;BME280;30041;48.300;16.352;2023-03-04T10:14:15;99776.16;;;21.01;41.40
43312;BME280;30041;48.300;16.352;2023-03-04T10:16:48;99776.00;;;20.96;41.78
43312;BME280;30041;48.300;16.352;2023-03-04T10:22:20;99785.84;;;21.02;41.73
43312;BME280;30041;48.300;16.352;2023-03-04T10:24:47;99775.19;;;20.96;41.70
43312;BME280;30041;48.300;16.352;2023-03-04T10:27:16;99763.81;;;20.93;41.80
43312;BME280;30041;48.300;16.352;2023-03-04T10:29:43;99755.50;;;20.95;41.87
43312;BME280;30041;48.300;16.352;2023-03-04T10:32:27;99757.03;;;21.03;41.03
43312;BME280;30041;48.300;16.352;2023-03-04T10:34:52;99751.31;;;21.11;41.18
43312;BME280;30041;48.300;16.352;2023-03-04T10:37:18;99749.59;;;21.28;40.65
43312;BME280;30041;48.300;16.352;2023-03-04T10:39:45;99752.88;;;21.30;40.64
43312;BME280;30041;48.300;16.352;2023-03-04T10:45:23;99740.09;;;21.38;40.23
43312;BME280;30041;48.300;16.352;2023-03-04T10:47:54;99741.25;;;21.30;40.62
43312;BME280;30041;48.300;16.352;2023-03-04T10:50:29;99742.16;;;21.12;41.26
43312;BME280;30041;48.300;16.352;2023-03-04T10:52:55;99736.66;;;21.07;41.43
43312;BME280;30041;48.300;16.352;2023-03-04T10:55:25;99735.25;;;21.04;41.47
43312;BME280;30041;48.300;16.352;2023-03-04T10:57:54;99733.84;;;21.02;41.64
43312;BME280;30041;48.300;16.352;2023-03-04T11:00:23;99741.59;;;21.10;41.55
43312;BME280;30041;48.300;16.352;2023-03-04T11:02:49;99734.88;;;21.01;41.91
43312;BME280;30041;48.300;16.352;2023-03-04T11:05:23;99723.41;;;21.05;41.59
43312;BME280;30041;48.300;16.352;2023-03-04T11:07:50;99719.19;;;20.98;41.97
43312;BME280;30041;48.300;16.352;2023-03-04T11:10:22;99723.19;;;21.07;41.56
43312;BME280;30041;48.300;16.352;2023-03-04T11:13:17;99714.66;;;21.22;41.49
43312;BME280;30041;48.300;16.352;2023-03-04T11:16:04;99713.59;;;21.23;41.59
43312;BME280;30041;48.300;16.352;2023-03-04T11:18:53;99706.78;;;21.08;41.99
43312;BME280;30041;48.300;16.352;2023-03-04T11:21:24;99704.09;;;21.32;41.58
43312;BME280;30041;48.300;16.352;2023-03-04T11:23:58;99703.88;;;21.10;40.53
43312;BME280;30041;48.300;16.352;2023-03-04T11:26:35;99713.44;;;20.94;41.48
43312;BME280;30041;48.300;16.352;2023-03-04T11:29:24;99702.31;;;20.90;41.40
43312;BME280;30041;48.300;16.352;2023-03-04T11:34:38;99697.63;;;20.86;41.87
43312;BME280;30041;48.300;16.352;2023-03-04T11:37:07;99693.44;;;20.90;41.90
43312;BME280;30041;48.300;16.352;2023-03-04T11:39:40;99681.69;;;20.96;41.74
43312;BME280;30041;48.300;16.352;2023-03-04T11:44:51;99688.03;;;21.25;41.55
43312;BME280;30041;48.300;16.352;2023-03-04T11:50:13;99678.09;;;21.49;41.06
43312;BME280;30041;48.300;16.352;2023-03-04T11:55:44;99667.44;;;21.54;41.30
43312;BME280;30041;48.300;16.352;2023-03-04T11:58:22;99664.16;;;21.41;41.18
43312;BME280;30041;48.300;16.352;2023-03-04T12:03:58;99650.31;;;21.02;42.43
43312;BME280;30041;48.300;16.352;2023-03-04T12:09:30;99647.84;;;21.00;42.23
43312;BME280;30041;48.300;16.352;2023-03-04T12:15:06;99646.88;;;21.30;41.73
43312;BME280;30041;48.300;16.352;2023-03-04T12:18:04;99628.88;;;21.42;41.58
43312;BME280;30041;48.300;16.352;2023-03-04T12:26:23;99629.91;;;21.29;41.80
43312;BME280;30041;48.300;16.352;2023-03-04T12:29:06;99622.06;;;21.28;41.79
43312;BME280;30041;48.300;16.352;2023-03-04T12:31:45;99624.50;;;21.29;41.99
43312;BME280;30041;48.300;16.352;2023-03-04T12:37:15;99606.94;;;21.27;41.91
43312;BME280;30041;48.300;16.352;2023-03-04T12:40:20;99613.72;;;21.29;41.94
43312;BME280;30041;48.300;16.352;2023-03-04T12:51:22;99594.78;;;21.12;42.21
43312;BME280;30041;48.300;16.352;2023-03-04T12:56:28;99592.31;;;21.11;39.58
43312;BME280;30041;48.300;16.352;2023-03-04T12:58:55;99587.25;;;21.26;40.35
43312;BME280;30041;48.300;16.352;2023-03-04T13:01:26;99587.25;;;21.26;40.85
43312;BME280;30041;48.300;16.352;2023-03-04T13:04:00;99582.13;;;21.13;41.16
43312;BME280;30041;48.300;16.352;2023-03-04T13:06:33;99585.31;;;21.10;41.39
43312;BME280;30041;48.300;16.352;2023-03-04T13:14:31;99577.22;;;21.10;41.46
43312;BME280;30041;48.300;16.352;2023-03-04T13:20:17;99571.56;;;21.23;41.24
43312;BME280;30041;48.300;16.352;2023-03-04T13:22:52;99563.84;;;21.15;41.67
43312;BME280;30041;48.300;16.352;2023-03-04T13:28:17;99567.81;;;21.24;41.30
43312;BME280;30041;48.300;16.352;2023-03-04T13:43:55;99561.69;;;21.29;41.06
43312;BME280;30041;48.300;16.352;2023-03-04T13:51:33;99550.00;;;21.11;41.65
43312;BME280;30041;48.300;16.352;2023-03-04T13:56:34;99558.22;;;21.05;41.24
43312;BME280;30041;48.300;16.352;2023-03-04T13:59:19;99551.66;;;21.01;40.87
43312;BME280;30041;48.300;16.352;2023-03-04T14:06:44;99575.47;;;21.04;39.46
43312;BME280;30041;48.300;16.352;2023-03-04T14:09:22;99592.66;;;21.03;40.46
43312;BME280;30041;48.300;16.352;2023-03-04T14:11:50;99573.94;;;21.08;41.10
43312;BME280;30041;48.300;16.352;2023-03-04T14:14:23;99574.69;;;21.32;40.26
43312;BME280;30041;48.300;16.352;2023-03-04T14:16:55;99597.72;;;21.11;40.75
43312;BME280;30041;48.300;16.352;2023-03-04T14:21:55;99589.28;;;20.96;40.23